sensor_id;sensor_type;location;lat;lon;timestamp;pressure;altitude;pressure_sealevel;temperature;humidity
47588;BME280;34356;45.788;12.046;2022-08-21T00:01:53;99798.35;;;24.89;36.79
47588;BME280;34356;45.788;12.046;2022-08-21T00:04:21;99797.39;;;24.87;36.87
47588;BME280;34356;45.788;12.046;2022-08-21T00:06:49;99795.58;;;25.15;36.87
47588;BME280;34356;45.788;12.046;2022-08-21T00:09:18;99795.98;;;25.14;37.00
47588;BME280;34356;45.788;12.046;2022-08-21T00:11:46;99797.99;;;24.83;36.93
47588;BME280;34356;45.788;12.046;2022-08-21T00:14:13;99798.10;;;24.76;37.01
47588;BME280;34356;45.788;12.046;2022-08-21T00:16:41;99801.50;;;25.01;37.00
47588;BME280;34356;45.788;12.046;2022-08-21T00:19:08;99801.30;;;25.00;37.04
47588;BME280;34356;45.788;12.046;2022-08-21T00:21:36;99803.32;;;24.68;37.10
47588;BME280;34356;45.788;12.046;2022-08-21T00:24:04;99800.64;;;24.90;37.12
47588;BME280;34356;45.788;12.046;2022-08-21T00:26:32;99798.97;;;24.88;37.15
47588;BME280;34356;45.788;12.046;2022-08-21T00:28:59;99791.94;;;24.55;37.18
47588;BME280;34356;45.788;12.046;2022-08-21T00:31:27;99792.34;;;24.80;37.21
47588;BME280;34356;45.788;12.046;2022-08-21T00:33:54;99794.71;;;24.26;37.24
47588;BME280;34356;45.788;12.046;2022-08-21T00:36:21;99791.48;;;24.68;37.36
47588;BME280;34356;45.788;12.046;2022-08-21T00:38:48;99790.03;;;24.32;37.41
47588;BME280;34356;45.788;12.046;2022-08-21T00:41:15;99790.12;;;24.78;37.42
47588;BME280;34356;45.788;12.046;2022-08-21T00:43:42;99787.67;;;24.52;37.49
47588;BME280;34356;45.788;12.046;2022-08-21T00:46:09;99786.70;;;24.48;37.48
47588;BME280;34356;45.788;12.046;2022-08-21T00:48:36;99783.26;;;24.45;37.48
47588;BME280;34356;45.788;12.046;2022-08-21T00:51:15;99779.45;;;24.42;37.51
47588;BME280;34356;45.788;12.046;2022-08-21T00:53:45;99781.89;;;24.38;37.56
47588;BME280;34356;45.788;12.046;2022-08-21T00:56:12;99780.36;;;24.58;37.61
47588;BME280;34356;45.788;12.046;2022-08-21T00:58:41;99782.03;;;24.37;37.60
47588;BME280;34356;45.788;12.046;2022-08-21T01:01:09;99782.26;;;24.35;37.64
47588;BME280;34356;45.788;12.046;2022-08-21T01:03:37;99781.31;;;24.59;37.57
47588;BME280;34356;45.788;12.046;2022-08-21T01:06:06;99780.67;;;24.37;37.59
47588;BME280;34356;45.788;12.046;2022-08-21T01:08:33;99775.24;;;24.31;37.62
47588;BME280;34356;45.788;12.046;2022-08-21T01:11:02;99768.23;;;24.24;37.65
47588;BME280;34356;45.788;12.046;2022-08-21T01:13:32;99765.08;;;24.18;37.73
47588;BME280;34356;45.788;12.046;2022-08-21T01:16:03;99761.30;;;24.17;37.72
47588;BME280;34356;45.788;12.046;2022-08-21T01:18:31;99760.15;;;24.19;37.70
47588;BME280;34356;45.788;12.046;2022-08-21T01:21:02;99761.09;;;24.20;37.69
47588;BME280;34356;45.788;12.046;2022-08-21T01:23:30;99759.67;;;24.22;37.67
47588;BME280;34356;45.788;12.046;2022-08-21T01:25:57;99762.78;;;23.95;37.64
47588;BME280;34356;45.788;12.046;2022-08-21T01:28:24;99766.32;;;24.22;37.67
47588;BME280;34356;45.788;12.046;2022-08-21T01:30:52;99767.26;;;24.65;37.71
47588;BME280;34356;45.788;12.046;2022-08-21T01:33:22;99767.87;;;24.19;37.67
47588;BME280;34356;45.788;12.046;2022-08-21T01:35:52;99769.16;;;24.37;37.69
47588;BME280;34356;45.788;12.046;2022-08-21T01:38:19;99772.51;;;24.52;37.75
47588;BME280;34356;45.788;12.046;2022-08-21T01:40:46;99769.75;;;24.01;37.82
47588;BME280;34356;45.788;12.046;2022-08-21T01:43:13;99765.40;;;23.97;37.84
47588;BME280;34356;45.788;12.046;2022-08-21T01:45:41;99763.10;;;24.12;37.85
47588;BME280;34356;45.788;12.046;2022-08-21T01:48:08;99755.65;;;23.84;37.93
47588;BME280;34356;45.788;12.046;2022-08-21T01:50:36;99759.02;;;23.84;37.88
47588;BME280;34356;45.788;12.046;2022-08-21T01:53:04;99756.29;;;23.81;37.91
47588;BME280;34356;45.788;12.046;2022-08-21T01:55:32;99753.87;;;24.01;37.93
47588;BME280;34356;45.788;12.046;2022-08-21T01:58:00;99751.59;;;23.74;37.92
47588;BME280;34356;45.788;12.046;2022-08-21T02:00:27;99751.00;;;23.68;37.93
47588;BME280;34356;45.788;12.046;2022-08-21T02:02:54;99750.50;;;23.36;37.93
47588;BME280;34356;45.788;12.046;2022-08-21T02:05:21;99748.55;;;23.81;37.92
47588;BME280;34356;45.788;12.046;2022-08-21T02:07:50;99744.56;;;23.78;37.94
47588;BME280;34356;45.788;12.046;2022-08-21T02:10:22;99742.21;;;23.95;37.97
47588;BME280;34356;45.788;12.046;2022-08-21T02:12:50;99741.87;;;23.69;38.02
47588;BME280;34356;45.788;12.046;2022-08-21T02:15:18;99738.79;;;23.86;38.05
47588;BME280;34356;45.788;12.046;2022-08-21T02:17:47;99739.88;;;23.84;38.08
47588;BME280;34356;45.788;12.046;2022-08-21T02:20:18;99738.40;;;23.81;38.06
47588;BME280;34356;45.788;12.046;2022-08-21T02:22:45;99736.59;;;23.82;38.00
47588;BME280;34356;45.788;12.046;2022-08-21T02:25:12;99735.17;;;23.84;38.02
47588;BME280;34356;45.788;12.046;2022-08-21T02:27:41;99734.18;;;23.86;37.96
47588;BME280;34356;45.788;12.046;2022-08-21T02:30:13;99733.34;;;23.65;37.91
47588;BME280;34356;45.788;12.046;2022-08-21T02:32:40;99734.24;;;23.84;37.88
47588;BME280;34356;45.788;12.046;2022-08-21T02:35:08;99731.81;;;23.57;37.89
47588;BME280;34356;45.788;12.046;2022-08-21T02:37:43;99730.45;;;23.73;37.93
47588;BME280;34356;45.788;12.046;2022-08-21T02:40:11;99731.13;;;23.64;37.99
47588;BME280;34356;45.788;12.046;2022-08-21T02:42:39;99732.59;;;23.59;38.02
47588;BME280;34356;45.788;12.046;2022-08-21T02:45:06;99730.30;;;23.34;38.06
47588;BME280;34356;45.788;12.046;2022-08-21T02:47:34;99728.31;;;23.56;38.06
47588;BME280;34356;45.788;12.046;2022-08-21T02:50:01;99729.03;;;23.55;38.03
47588;BME280;34356;45.788;12.046;2022-08-21T02:52:28;99728.71;;;23.33;38.04
47588;BME280;34356;45.788;12.046;2022-08-21T02:54:55;99729.44;;;23.30;38.00
47588;BME280;34356;45.788;12.046;2022-08-21T02:57:22;99730.10;;;23.49;38.01
47588;BME280;34356;45.788;12.046;2022-08-21T02:59:49;99733.88;;;23.73;38.03
47588;BME280;34356;45.788;12.046;2022-08-21T03:02:16;99734.16;;;23.47;37.92
47588;BME280;34356;45.788;12.046;2022-08-21T03:04:43;99730.76;;;23.42;38.01
47588;BME280;34356;45.788;12.046;2022-08-21T03:07:10;99731.00;;;23.36;38.03
47588;BME280;34356;45.788;12.046;2022-08-21T03:09:37;99730.81;;;23.57;38.12
47588;BME280;34356;45.788;12.046;2022-08-21T03:12:04;99730.39;;;23.06;38.12
47588;BME280;34356;45.788;12.046;2022-08-21T03:14:31;99729.64;;;23.54;38.09
47588;BME280;34356;45.788;12.046;2022-08-21T03:16:58;99727.67;;;23.26;38.10
47588;BME280;34356;45.788;12.046;2022-08-21T03:19:25;99726.44;;;23.24;38.08
47588;BME280;34356;45.788;12.046;2022-08-21T03:21:52;99727.43;;;23.20;38.09
47588;BME280;34356;45.788;12.046;2022-08-21T03:24:19;99728.86;;;23.19;38.09
47588;BME280;34356;45.788;12.046;2022-08-21T03:26:46;99732.61;;;23.45;38.12
47588;BME280;34356;45.788;12.046;2022-08-21T03:29:13;99732.90;;;22.94;38.09
47588;BME280;34356;45.788;12.046;2022-08-21T03:31:40;99733.33;;;23.63;38.07
47588;BME280;34356;45.788;12.046;2022-08-21T03:34:07;99733.16;;;23.13;38.02
47588;BME280;34356;45.788;12.046;2022-08-21T03:36:34;99729.16;;;23.36;38.01
47588;BME280;34356;45.788;12.046;2022-08-21T03:39:03;99729.81;;;23.02;38.04
47588;BME280;34356;45.788;12.046;2022-08-21T03:41:30;99732.25;;;22.92;38.13
47588;BME280;34356;45.788;12.046;2022-08-21T03:43:58;99732.48;;;22.88;38.18
47588;BME280;34356;45.788;12.046;2022-08-21T03:46:25;99732.76;;;23.13;38.19
47588;BME280;34356;45.788;12.046;2022-08-21T03:48:53;99734.15;;;23.09;38.18
47588;BME280;34356;45.788;12.046;2022-08-21T03:51:20;99728.69;;;23.07;38.17
47588;BME280;34356;45.788;12.046;2022-08-21T03:53:48;99723.44;;;23.07;38.13
47588;BME280;34356;45.788;12.046;2022-08-21T03:56:15;99721.01;;;23.29;38.11
47588;BME280;34356;45.788;12.046;2022-08-21T03:58:42;99717.56;;;23.08;38.04
47588;BME280;34356;45.788;12.046;2022-08-21T04:01:09;99720.35;;;22.78;38.07
47588;BME280;34356;45.788;12.046;2022-08-21T04:03:37;99722.74;;;22.76;38.05
47588;BME280;34356;45.788;12.046;2022-08-21T04:06:06;99719.76;;;23.06;37.99
47588;BME280;34356;45.788;12.046;2022-08-21T04:08:34;99725.18;;;22.84;37.91
47588;BME280;34356;45.788;12.046;2022-08-21T04:11:02;99730.99;;;22.84;37.85
47588;BME280;34356;45.788;12.046;2022-08-21T04:13:29;99734.27;;;22.83;37.85
47588;BME280;34356;45.788;12.046;2022-08-21T04:15:57;99735.52;;;22.66;37.75
47588;BME280;34356;45.788;12.046;2022-08-21T04:18:24;99733.51;;;23.36;37.66
47588;BME280;34356;45.788;12.046;2022-08-21T04:20:53;99734.24;;;23.34;37.65
47588;BME280;34356;45.788;12.046;2022-08-21T04:23:22;99738.70;;;23.11;37.61
47588;BME280;34356;45.788;12.046;2022-08-21T04:25:49;99735.21;;;23.11;37.57
47588;BME280;34356;45.788;12.046;2022-08-21T04:28:17;99744.24;;;22.80;37.57
47588;BME280;34356;45.788;12.046;2022-08-21T04:30:44;99746.59;;;23.02;37.59
47588;BME280;34356;45.788;12.046;2022-08-21T04:33:11;99746.98;;;23.24;37.50
47588;BME280;34356;45.788;12.046;2022-08-21T04:35:38;99747.85;;;23.03;37.43
47588;BME280;34356;45.788;12.046;2022-08-21T04:38:05;99749.89;;;23.06;37.30
47588;BME280;34356;45.788;12.046;2022-08-21T04:40:32;99755.77;;;23.03;37.34
47588;BME280;34356;45.788;12.046;2022-08-21T04:43:02;99756.37;;;22.77;37.34
47588;BME280;34356;45.788;12.046;2022-08-21T04:45:34;99758.66;;;23.05;37.33
47588;BME280;34356;45.788;12.046;2022-08-21T04:48:04;99760.30;;;23.05;37.30
47588;BME280;34356;45.788;12.046;2022-08-21T04:50:37;99757.57;;;23.24;37.33
47588;BME280;34356;45.788;12.046;2022-08-21T04:53:08;99751.60;;;23.01;37.33
47588;BME280;34356;45.788;12.046;2022-08-21T04:55:38;99755.97;;;23.14;37.42
47588;BME280;34356;45.788;12.046;2022-08-21T04:58:06;99762.82;;;22.59;37.48
47588;BME280;34356;45.788;12.046;2022-08-21T05:00:35;99757.83;;;23.02;37.52
47588;BME280;34356;45.788;12.046;2022-08-21T05:03:03;99754.37;;;22.84;37.50
47588;BME280;34356;45.788;12.046;2022-08-21T05:05:32;99757.01;;;23.11;37.42
47588;BME280;34356;45.788;12.046;2022-08-21T05:08:02;99757.60;;;22.97;37.34
47588;BME280;34356;45.788;12.046;2022-08-21T05:10:30;99754.67;;;23.24;37.21
47588;BME280;34356;45.788;12.046;2022-08-21T05:12:57;99757.44;;;22.99;37.22
47588;BME280;34356;45.788;12.046;2022-08-21T05:15:25;99756.28;;;23.21;37.23
47588;BME280;34356;45.788;12.046;2022-08-21T05:17:52;99756.81;;;23.26;37.16
47588;BME280;34356;45.788;12.046;2022-08-21T05:20:20;99752.01;;;23.10;37.08
47588;BME280;34356;45.788;12.046;2022-08-21T05:22:46;99752.78;;;23.35;37.06
47588;BME280;34356;45.788;12.046;2022-08-21T05:25:13;99747.09;;;23.16;37.00
47588;BME280;34356;45.788;12.046;2022-08-21T05:27:40;99753.48;;;23.43;36.94
47588;BME280;34356;45.788;12.046;2022-08-21T05:30:08;99753.14;;;22.97;36.90
47588;BME280;34356;45.788;12.046;2022-08-21T05:32:36;99751.49;;;23.28;36.85
47588;BME280;34356;45.788;12.046;2022-08-21T05:35:04;99753.21;;;23.03;36.81
47588;BME280;34356;45.788;12.046;2022-08-21T05:37:32;99746.07;;;23.03;36.83
47588;BME280;34356;45.788;12.046;2022-08-21T05:40:00;99747.37;;;23.04;36.80
47588;BME280;34356;45.788;12.046;2022-08-21T05:42:28;99750.11;;;23.29;36.88
47588;BME280;34356;45.788;12.046;2022-08-21T05:44:55;99747.89;;;22.82;36.87
47588;BME280;34356;45.788;12.046;2022-08-21T05:47:22;99750.70;;;23.33;36.85
47588;BME280;34356;45.788;12.046;2022-08-21T05:49:49;99748.22;;;23.34;36.88
47588;BME280;34356;45.788;12.046;2022-08-21T05:52:19;99748.42;;;23.07;36.92
47588;BME280;34356;45.788;12.046;2022-08-21T05:54:46;99746.01;;;23.57;36.91
47588;BME280;34356;45.788;12.046;2022-08-21T05:57:13;99747.00;;;23.44;36.85
47588;BME280;34356;45.788;12.046;2022-08-21T05:59:40;99746.69;;;23.23;36.80
47588;BME280;34356;45.788;12.046;2022-08-21T06:02:07;99747.85;;;23.29;36.73
47588;BME280;34356;45.788;12.046;2022-08-21T06:04:35;99749.24;;;23.34;36.70
47588;BME280;34356;45.788;12.046;2022-08-21T06:07:03;99752.84;;;23.42;36.62
47588;BME280;34356;45.788;12.046;2022-08-21T06:09:31;99754.00;;;23.49;36.55
47588;BME280;34356;45.788;12.046;2022-08-21T06:12:03;99754.41;;;23.29;36.49
47588;BME280;34356;45.788;12.046;2022-08-21T06:14:30;99750.65;;;23.57;36.27
47588;BME280;34356;45.788;12.046;2022-08-21T06:17:02;99752.55;;;23.58;36.26
47588;BME280;34356;45.788;12.046;2022-08-21T06:19:29;99751.79;;;23.63;36.25
47588;BME280;34356;45.788;12.046;2022-08-21T06:21:57;99749.01;;;23.51;36.21
47588;BME280;34356;45.788;12.046;2022-08-21T06:24:25;99752.10;;;23.89;36.10
47588;BME280;34356;45.788;12.046;2022-08-21T06:26:53;99751.42;;;23.76;36.02
47588;BME280;34356;45.788;12.046;2022-08-21T06:29:22;99749.82;;;24.07;35.86
47588;BME280;34356;45.788;12.046;2022-08-21T06:31:50;99748.20;;;24.14;35.78
47588;BME280;34356;45.788;12.046;2022-08-21T06:34:18;99745.97;;;24.00;35.67
47588;BME280;34356;45.788;12.046;2022-08-21T06:36:45;99750.45;;;24.27;35.54
47588;BME280;34356;45.788;12.046;2022-08-21T06:39:12;99749.84;;;23.91;35.53
47588;BME280;34356;45.788;12.046;2022-08-21T06:41:39;99751.11;;;24.25;35.49
47588;BME280;34356;45.788;12.046;2022-08-21T06:44:06;99747.28;;;24.16;35.39
47588;BME280;34356;45.788;12.046;2022-08-21T06:46:34;99747.04;;;24.26;35.24
47588;BME280;34356;45.788;12.046;2022-08-21T06:49:02;99745.75;;;24.34;35.13
47588;BME280;34356;45.788;12.046;2022-08-21T06:51:29;99743.15;;;24.34;34.84
47588;BME280;34356;45.788;12.046;2022-08-21T06:53:56;99742.72;;;24.35;34.80
47588;BME280;34356;45.788;12.046;2022-08-21T06:56:23;99745.78;;;24.38;34.84
47588;BME280;34356;45.788;12.046;2022-08-21T06:58:50;99747.23;;;24.65;34.80
47588;BME280;34356;45.788;12.046;2022-08-21T07:01:17;99746.72;;;24.49;34.70
47588;BME280;34356;45.788;12.046;2022-08-21T07:03:45;99747.14;;;24.57;34.66
47588;BME280;34356;45.788;12.046;2022-08-21T07:06:12;99742.21;;;24.42;34.44
47588;BME280;34356;45.788;12.046;2022-08-21T07:08:39;99740.78;;;24.75;34.47
47588;BME280;34356;45.788;12.046;2022-08-21T07:11:11;99740.50;;;24.58;34.44
47588;BME280;34356;45.788;12.046;2022-08-21T07:13:39;99741.06;;;24.67;34.33
47588;BME280;34356;45.788;12.046;2022-08-21T07:16:07;99741.66;;;25.01;34.22
47588;BME280;34356;45.788;12.046;2022-08-21T07:18:34;99739.22;;;25.08;34.07
47588;BME280;34356;45.788;12.046;2022-08-21T07:21:02;99742.61;;;24.88;33.92
47588;BME280;34356;45.788;12.046;2022-08-21T07:23:31;99736.20;;;25.00;33.75
47588;BME280;34356;45.788;12.046;2022-08-21T07:26:00;99732.99;;;25.31;33.83
47588;BME280;34356;45.788;12.046;2022-08-21T07:28:28;99733.98;;;25.37;33.73
47588;BME280;34356;45.788;12.046;2022-08-21T07:30:58;99735.38;;;25.15;33.62
47588;BME280;34356;45.788;12.046;2022-08-21T07:33:27;99734.14;;;25.28;33.43
47588;BME280;34356;45.788;12.046;2022-08-21T07:35:55;99735.12;;;25.18;33.45
47588;BME280;34356;45.788;12.046;2022-08-21T07:38:23;99735.31;;;25.36;33.49
47588;BME280;34356;45.788;12.046;2022-08-21T07:40:51;99739.61;;;25.77;33.23
47588;BME280;34356;45.788;12.046;2022-08-21T07:43:20;99737.54;;;25.68;33.01
47588;BME280;34356;45.788;12.046;2022-08-21T07:45:48;99738.42;;;25.82;32.87
47588;BME280;34356;45.788;12.046;2022-08-21T07:48:15;99739.59;;;25.92;32.69
47588;BME280;34356;45.788;12.046;2022-08-21T07:50:43;99732.81;;;26.20;32.58
47588;BME280;34356;45.788;12.046;2022-08-21T07:53:11;99732.58;;;26.06;32.54
47588;BME280;34356;45.788;12.046;2022-08-21T07:55:38;99732.04;;;26.34;32.46
47588;BME280;34356;45.788;12.046;2022-08-21T07:58:06;99730.36;;;26.22;32.41
47588;BME280;34356;45.788;12.046;2022-08-21T08:00:33;99729.56;;;26.30;32.15
47588;BME280;34356;45.788;12.046;2022-08-21T08:03:01;99726.62;;;26.37;32.14
47588;BME280;34356;45.788;12.046;2022-08-21T08:05:30;99729.69;;;26.46;32.00
47588;BME280;34356;45.788;12.046;2022-08-21T08:07:58;99731.07;;;26.34;31.79
47588;BME280;34356;45.788;12.046;2022-08-21T08:10:25;99727.35;;;26.45;31.71
47588;BME280;34356;45.788;12.046;2022-08-21T08:12:53;99725.77;;;26.32;31.09
47588;BME280;34356;45.788;12.046;2022-08-21T08:15:23;99724.13;;;26.83;30.48
47588;BME280;34356;45.788;12.046;2022-08-21T08:17:52;99722.28;;;26.42;30.68
47588;BME280;34356;45.788;12.046;2022-08-21T08:20:19;99715.13;;;26.56;30.03
47588;BME280;34356;45.788;12.046;2022-08-21T08:22:47;99712.69;;;26.61;29.89
47588;BME280;34356;45.788;12.046;2022-08-21T08:25:15;99710.81;;;26.69;29.95
47588;BME280;34356;45.788;12.046;2022-08-21T08:27:42;99712.20;;;26.86;30.01
47588;BME280;34356;45.788;12.046;2022-08-21T08:30:13;99706.37;;;27.01;29.86
47588;BME280;34356;45.788;12.046;2022-08-21T08:32:41;99703.43;;;27.17;29.73
47588;BME280;34356;45.788;12.046;2022-08-21T08:35:09;99701.55;;;27.31;29.65
47588;BME280;34356;45.788;12.046;2022-08-21T08:37:37;99695.85;;;27.41;29.45
47588;BME280;34356;45.788;12.046;2022-08-21T08:40:06;99693.96;;;27.45;29.31
47588;BME280;34356;45.788;12.046;2022-08-21T08:42:37;99695.24;;;27.54;29.28
47588;BME280;34356;45.788;12.046;2022-08-21T08:45:08;99693.86;;;27.43;29.20
47588;BME280;34356;45.788;12.046;2022-08-21T08:47:39;99690.86;;;27.78;28.91
47588;BME280;34356;45.788;12.046;2022-08-21T08:50:11;99691.26;;;27.65;28.62
47588;BME280;34356;45.788;12.046;2022-08-21T08:52:43;99690.50;;;27.75;28.48
47588;BME280;34356;45.788;12.046;2022-08-21T08:55:15;99688.49;;;27.56;28.39
47588;BME280;34356;45.788;12.046;2022-08-21T08:57:47;99686.69;;;27.87;28.38
47588;BME280;34356;45.788;12.046;2022-08-21T09:00:18;99684.34;;;27.91;28.41
47588;BME280;34356;45.788;12.046;2022-08-21T09:02:47;99682.29;;;27.95;28.39
47588;BME280;34356;45.788;12.046;2022-08-21T09:05:22;99682.97;;;28.04;28.41
47588;BME280;34356;45.788;12.046;2022-08-21T09:08:07;99683.61;;;27.86;28.28
47588;BME280;34356;45.788;12.046;2022-08-21T09:10:45;99682.26;;;27.86;27.46
47588;BME280;34356;45.788;12.046;2022-08-21T09:13:21;99678.71;;;27.92;27.03
47588;BME280;34356;45.788;12.046;2022-08-21T09:15:57;99679.78;;;28.00;27.03
47588;BME280;34356;45.788;12.046;2022-08-21T09:18:38;99680.43;;;28.07;27.30
47588;BME280;34356;45.788;12.046;2022-08-21T09:21:21;99680.17;;;28.11;26.97
47588;BME280;34356;45.788;12.046;2022-08-21T09:23:57;99680.67;;;28.20;27.23
47588;BME280;34356;45.788;12.046;2022-08-21T09:26:30;99679.79;;;28.22;27.16
47588;BME280;34356;45.788;12.046;2022-08-21T09:28:59;99676.33;;;28.29;27.02
47588;BME280;34356;45.788;12.046;2022-08-21T09:31:30;99674.24;;;28.15;26.88
47588;BME280;34356;45.788;12.046;2022-08-21T09:33:59;99671.24;;;28.01;26.72
47588;BME280;34356;45.788;12.046;2022-08-21T09:36:38;99675.26;;;28.31;26.98
47588;BME280;34356;45.788;12.046;2022-08-21T09:39:06;99674.12;;;28.18;27.16
47588;BME280;34356;45.788;12.046;2022-08-21T09:41:36;99674.10;;;28.26;27.36
47588;BME280;34356;45.788;12.046;2022-08-21T09:44:05;99669.31;;;28.33;27.41
47588;BME280;34356;45.788;12.046;2022-08-21T09:46:32;99665.15;;;28.60;27.48
47588;BME280;34356;45.788;12.046;2022-08-21T09:49:02;99659.34;;;28.43;27.59
47588;BME280;34356;45.788;12.046;2022-08-21T09:51:32;99662.78;;;28.49;27.71
47588;BME280;34356;45.788;12.046;2022-08-21T09:54:16;99664.87;;;28.55;27.87
47588;BME280;34356;45.788;12.046;2022-08-21T09:56:55;99665.46;;;28.63;27.82
47588;BME280;34356;45.788;12.046;2022-08-21T09:59:28;99666.74;;;28.69;27.80
47588;BME280;34356;45.788;12.046;2022-08-21T10:01:55;99665.06;;;28.25;27.70
47588;BME280;34356;45.788;12.046;2022-08-21T10:04:29;99662.92;;;28.79;27.66
47588;BME280;34356;45.788;12.046;2022-08-21T10:07:07;99660.93;;;28.86;27.61
47588;BME280;34356;45.788;12.046;2022-08-21T10:09:34;99659.74;;;28.65;27.52
47588;BME280;34356;45.788;12.046;2022-08-21T10:12:14;99659.80;;;28.98;27.52
47588;BME280;34356;45.788;12.046;2022-08-21T10:14:53;99661.44;;;29.03;27.61
47588;BME280;34356;45.788;12.046;2022-08-21T10:17:27;99660.62;;;29.09;27.51
47588;BME280;34356;45.788;12.046;2022-08-21T10:20:03;99656.26;;;28.83;27.46
47588;BME280;34356;45.788;12.046;2022-08-21T10:22:40;99655.98;;;29.14;27.47
47588;BME280;34356;45.788;12.046;2022-08-21T10:25:17;99651.29;;;29.24;27.43
47588;BME280;34356;45.788;12.046;2022-08-21T10:27:54;99653.25;;;29.32;27.46
47588;BME280;34356;45.788;12.046;2022-08-21T10:30:35;99650.85;;;29.40;27.48
47588;BME280;34356;45.788;12.046;2022-08-21T10:33:17;99650.05;;;29.50;27.48
47588;BME280;34356;45.788;12.046;2022-08-21T10:35:55;99654.37;;;29.59;27.33
47588;BME280;34356;45.788;12.046;2022-08-21T10:39:03;99653.64;;;29.35;27.26
47588;BME280;34356;45.788;12.046;2022-08-21T10:41:48;99652.03;;;29.47;27.18
47588;BME280;34356;45.788;12.046;2022-08-21T10:44:26;99652.32;;;29.53;27.02
47588;BME280;34356;45.788;12.046;2022-08-21T10:47:01;99647.41;;;29.53;27.00
47588;BME280;34356;45.788;12.046;2022-08-21T10:49:39;99646.31;;;29.35;27.07
47588;BME280;34356;45.788;12.046;2022-08-21T10:52:27;99646.73;;;29.60;27.10
47588;BME280;34356;45.788;12.046;2022-08-21T10:55:04;99642.03;;;29.61;26.92
47588;BME280;34356;45.788;12.046;2022-08-21T10:57:40;99641.82;;;29.92;26.91
47588;BME280;34356;45.788;12.046;2022-08-21T11:00:12;99641.71;;;29.94;26.98
47588;BME280;34356;45.788;12.046;2022-08-21T11:02:42;99641.89;;;29.94;26.94
47588;BME280;34356;45.788;12.046;2022-08-21T11:05:16;99642.82;;;29.70;26.90
47588;BME280;34356;45.788;12.046;2022-08-21T11:07:47;99643.30;;;29.80;26.73
47588;BME280;34356;45.788;12.046;2022-08-21T11:10:20;99639.51;;;29.86;26.71
47588;BME280;34356;45.788;12.046;2022-08-21T11:12:53;99638.38;;;29.92;26.67
47588;BME280;34356;45.788;12.046;2022-08-21T11:15:29;99638.42;;;29.97;26.71
47588;BME280;34356;45.788;12.046;2022-08-21T11:18:04;99637.08;;;29.81;26.64
47588;BME280;34356;45.788;12.046;2022-08-21T11:20:42;99632.97;;;30.35;26.76
47588;BME280;34356;45.788;12.046;2022-08-21T11:23:16;99633.00;;;30.12;26.90
47588;BME280;34356;45.788;12.046;2022-08-21T11:25:50;99630.40;;;30.09;26.75
47588;BME280;34356;45.788;12.046;2022-08-21T11:28:22;99625.52;;;29.92;26.76
47588;BME280;34356;45.788;12.046;2022-08-21T11:31:13;99622.70;;;30.24;26.68
47588;BME280;34356;45.788;12.046;2022-08-21T11:33:56;99622.08;;;30.37;26.72
47588;BME280;34356;45.788;12.046;2022-08-21T11:36:36;99619.39;;;30.46;26.71
47588;BME280;34356;45.788;12.046;2022-08-21T11:39:13;99617.45;;;30.09;26.71
47588;BME280;34356;45.788;12.046;2022-08-21T11:41:48;99619.27;;;30.71;26.81
47588;BME280;34356;45.788;12.046;2022-08-21T11:44:24;99619.17;;;30.31;26.77
47588;BME280;34356;45.788;12.046;2022-08-21T11:47:02;99613.47;;;30.18;26.74
47588;BME280;34356;45.788;12.046;2022-08-21T11:49:46;99614.74;;;30.75;26.82
47588;BME280;34356;45.788;12.046;2022-08-21T11:52:21;99611.98;;;30.85;26.59
47588;BME280;34356;45.788;12.046;2022-08-21T11:54:57;99608.71;;;30.96;26.51
47588;BME280;34356;45.788;12.046;2022-08-21T11:57:31;99608.69;;;30.84;26.51
47588;BME280;34356;45.788;12.046;2022-08-21T12:00:04;99608.56;;;30.97;26.52
47588;BME280;34356;45.788;12.046;2022-08-21T12:02:35;99607.11;;;31.34;26.39
47588;BME280;34356;45.788;12.046;2022-08-21T12:05:06;99601.78;;;30.97;26.33
47588;BME280;34356;45.788;12.046;2022-08-21T12:07:37;99597.26;;;31.30;26.18
47588;BME280;34356;45.788;12.046;2022-08-21T12:10:08;99601.13;;;31.21;26.05
47588;BME280;34356;45.788;12.046;2022-08-21T12:12:39;99599.09;;;31.32;25.92
47588;BME280;34356;45.788;12.046;2022-08-21T12:15:24;99597.77;;;31.43;25.76
47588;BME280;34356;45.788;12.046;2022-08-21T12:17:56;99593.94;;;31.62;25.62
47588;BME280;34356;45.788;12.046;2022-08-21T12:20:36;99589.70;;;31.75;25.41
47588;BME280;34356;45.788;12.046;2022-08-21T12:23:15;99582.11;;;31.79;25.06
47588;BME280;34356;45.788;12.046;2022-08-21T12:25:47;99587.39;;;31.78;25.14
47588;BME280;34356;45.788;12.046;2022-08-21T12:28:22;99581.18;;;31.87;25.22
47588;BME280;34356;45.788;12.046;2022-08-21T12:30:50;99579.13;;;31.76;25.21
47588;BME280;34356;45.788;12.046;2022-08-21T12:33:23;99575.26;;;32.04;25.15
47588;BME280;34356;45.788;12.046;2022-08-21T12:35:54;99572.32;;;32.14;25.10
47588;BME280;34356;45.788;12.046;2022-08-21T12:38:29;99568.76;;;32.09;24.93
47588;BME280;34356;45.788;12.046;2022-08-21T12:41:02;99570.20;;;32.03;24.58
47588;BME280;34356;45.788;12.046;2022-08-21T12:43:34;99565.93;;;32.47;24.34
47588;BME280;34356;45.788;12.046;2022-08-21T12:46:04;99558.38;;;32.36;24.16
47588;BME280;34356;45.788;12.046;2022-08-21T12:48:39;99551.90;;;32.52;23.97
47588;BME280;34356;45.788;12.046;2022-08-21T12:51:12;99548.05;;;32.73;23.68
47588;BME280;34356;45.788;12.046;2022-08-21T12:53:44;99542.13;;;32.94;23.57
47588;BME280;34356;45.788;12.046;2022-08-21T12:56:17;99540.84;;;32.96;23.45
47588;BME280;34356;45.788;12.046;2022-08-21T12:58:47;99538.28;;;33.35;23.49
47588;BME280;34356;45.788;12.046;2022-08-21T13:01:20;99537.29;;;33.05;23.45
47588;BME280;34356;45.788;12.046;2022-08-21T13:03:50;99534.26;;;33.55;23.47
47588;BME280;34356;45.788;12.046;2022-08-21T13:06:19;99533.61;;;33.20;23.42